createdAt,value
2023-03-22T00:00:01.427Z,11.2
2023-03-22T00:01:01.989Z,11.2
2023-03-22T00:02:01.583Z,11.2
2023-03-22T00:03:01.234Z,11.2
2023-03-22T00:04:01.753Z,11.3
2023-03-22T00:05:01.372Z,11.3
2023-03-22T00:06:01.956Z,11.3
2023-03-22T00:07:01.590Z,11.3
2023-03-22T00:08:02.152Z,11.3
2023-03-22T00:09:01.743Z,11.3
2023-03-22T00:10:01.340Z,11.4
2023-03-22T00:11:01.924Z,11.4
2023-03-22T00:12:01.513Z,11.4
2023-03-22T00:13:02.121Z,11.4
2023-03-22T00:14:01.715Z,11.4
2023-03-22T00:15:01.321Z,11.4
2023-03-22T00:16:01.954Z,11.5
2023-03-22T00:17:01.537Z,11.4
2023-03-22T00:18:02.140Z,11.4
2023-03-22T00:19:01.741Z,11.5
2023-03-22T00:20:01.340Z,11.5
2023-03-22T00:21:01.925Z,11.4
2023-03-22T00:22:01.535Z,11.4
2023-03-22T00:23:02.101Z,11.5
2023-03-22T00:24:01.693Z,11.5
2023-03-22T00:25:01.285Z,11.5
2023-03-22T00:26:01.860Z,11.5
2023-03-22T00:27:01.474Z,11.5
2023-03-22T00:28:02.051Z,11.4
2023-03-22T00:29:01.669Z,11.5
2023-03-22T00:30:01.240Z,11.4
2023-03-22T00:31:01.809Z,11.5
2023-03-22T00:32:01.433Z,11.4
2023-03-22T00:33:01.998Z,11.4
2023-03-22T00:34:01.601Z,11.4
2023-03-22T00:35:01.212Z,11.4
2023-03-22T00:36:01.754Z,11.5
2023-03-22T00:37:01.342Z,11.4
2023-03-22T00:38:01.914Z,11.4
2023-03-22T00:39:01.506Z,11.5
2023-03-22T00:40:01.662Z,11.4
2023-03-22T00:41:01.281Z,11.5
2023-03-22T00:42:00.876Z,11.4
2023-03-22T00:43:01.473Z,11.4
2023-03-22T00:44:01.078Z,11.4
2023-03-22T00:45:00.669Z,11.5
2023-03-22T00:46:01.266Z,11.4
2023-03-22T00:47:00.869Z,11.4
2023-03-22T00:48:01.492Z,11.5
2023-03-22T00:49:01.095Z,11.5
2023-03-22T00:50:00.688Z,11.5
2023-03-22T00:51:01.254Z,11.5
2023-03-22T00:52:00.840Z,11.5
2023-03-22T00:53:01.431Z,11.5
2023-03-22T00:54:01.209Z,11.5
2023-03-22T00:55:01.616Z,11.5
2023-03-22T00:56:01.206Z,11.5
2023-03-22T00:57:00.809Z,11.5
2023-03-22T00:58:01.404Z,11.4
2023-03-22T00:59:00.991Z,11.4
2023-03-22T01:00:01.569Z,11.4
2023-03-22T01:01:01.279Z,11.4
2023-03-22T01:02:00.816Z,11.4
2023-03-22T01:03:01.384Z,11.4
2023-03-22T01:04:01.061Z,11.4
2023-03-22T01:05:01.586Z,11.4
2023-03-22T01:06:01.195Z,11.4
2023-03-22T01:07:00.781Z,11.3
2023-03-22T01:08:01.367Z,11.3
2023-03-22T01:09:00.956Z,11.3
2023-03-22T01:10:01.559Z,11.3
2023-03-22T01:11:01.211Z,11.3
2023-03-22T01:12:00.717Z,11.2
2023-03-22T01:13:01.316Z,11.2
2023-03-22T01:14:00.913Z,11.2
2023-03-22T01:15:01.509Z,11.2
2023-03-22T01:16:01.148Z,11.2
2023-03-22T01:17:00.748Z,11.2
2023-03-22T01:18:01.261Z,11.2
2023-03-22T01:19:00.878Z,11.2
2023-03-22T01:20:01.482Z,11.2
2023-03-22T01:21:01.104Z,11.2
2023-03-22T01:22:00.668Z,11.2
2023-03-22T01:23:01.242Z,11.2
2023-03-22T01:24:00.837Z,11.3
2023-03-22T01:25:01.410Z,11.2
2023-03-22T01:26:01.020Z,11.2
2023-03-22T01:27:01.578Z,11.2
2023-03-22T01:28:01.167Z,11.2
2023-03-22T01:29:00.754Z,11.2
2023-03-22T01:30:01.334Z,11.2
2023-03-22T01:31:00.980Z,11.2
2023-03-22T01:32:01.510Z,11.1
2023-03-22T01:33:01.130Z,11
2023-03-22T01:34:00.692Z,11
2023-03-22T01:35:01.278Z,10.9
2023-03-22T01:36:00.964Z,10.8
2023-03-22T01:37:01.453Z,10.8
2023-03-22T01:38:01.070Z,10.7
2023-03-22T01:39:00.690Z,10.7
2023-03-22T01:40:01.214Z,10.8
2023-03-22T01:41:00.862Z,10.8
2023-03-22T01:42:01.393Z,10.9
2023-03-22T01:43:01.007Z,10.9
2023-03-22T01:44:01.593Z,10.9
2023-03-22T01:45:01.183Z,11
2023-03-22T01:46:00.927Z,10.9
2023-03-22T01:47:01.348Z,10.9
2023-03-22T01:48:00.955Z,10.9
2023-03-22T01:49:01.664Z,10.9
2023-03-22T01:50:01.159Z,10.9
2023-03-22T01:51:00.735Z,10.9
2023-03-22T01:52:01.354Z,11
2023-03-22T01:53:00.977Z,11
2023-03-22T01:54:01.570Z,11
2023-03-22T01:55:01.194Z,11
2023-03-22T01:56:00.759Z,11
2023-03-22T01:57:01.332Z,11.1
2023-03-22T01:58:00.966Z,11.1
2023-03-22T01:59:01.532Z,11
2023-03-22T02:00:01.149Z,11
2023-03-22T02:01:00.736Z,11
2023-03-22T02:02:01.279Z,11
2023-03-22T02:03:00.976Z,11
2023-03-22T02:04:01.444Z,10.9
2023-03-22T02:05:01.110Z,11
2023-03-22T02:06:00.676Z,11
2023-03-22T02:07:01.245Z,11
2023-03-22T02:08:00.865Z,11
2023-03-22T02:09:01.424Z,11
2023-03-22T02:10:01.056Z,11
2023-03-22T02:11:01.590Z,11
2023-03-22T02:12:01.177Z,11
2023-03-22T02:13:00.769Z,10.9
2023-03-22T02:14:01.340Z,10.9
2023-03-22T02:15:00.968Z,10.9
2023-03-22T02:16:01.550Z,10.9
2023-03-22T02:17:01.170Z,10.9
2023-03-22T02:18:00.743Z,10.8
2023-03-22T02:19:01.338Z,10.8
2023-03-22T02:20:00.945Z,10.8
2023-03-22T02:21:02.532Z,10.8
2023-03-22T02:22:01.187Z,10.8
2023-03-22T02:23:00.737Z,10.8
2023-03-22T02:24:01.323Z,10.8
2023-03-22T02:25:00.936Z,10.8
2023-03-22T02:26:01.537Z,10.8
2023-03-22T02:27:01.137Z,10.8
2023-03-22T02:28:00.706Z,10.7
2023-03-22T02:29:01.294Z,10.6
2023-03-22T02:30:00.888Z,10.7
2023-03-22T02:31:01.584Z,10.6
2023-03-22T02:32:01.146Z,10.6
2023-03-22T02:33:00.718Z,10.6
2023-03-22T02:34:01.312Z,10.6
2023-03-22T02:35:00.907Z,10.6
2023-03-22T02:36:01.501Z,10.6
2023-03-22T02:37:01.102Z,10.6
2023-03-22T02:38:00.673Z,10.6
2023-03-22T02:39:01.241Z,10.6
2023-03-22T02:40:00.852Z,10.6
2023-03-22T02:41:01.490Z,10.5
2023-03-22T02:42:01.052Z,10.5
2023-03-22T02:43:00.639Z,10.5
2023-03-22T02:44:01.243Z,10.4
2023-03-22T02:45:00.832Z,10.4
2023-03-22T02:46:01.446Z,10.4
2023-03-22T02:47:01.042Z,10.3
2023-03-22T02:48:01.700Z,10.3
2023-03-22T02:49:01.325Z,10.2
2023-03-22T02:50:00.861Z,10.2
2023-03-22T02:51:01.468Z,10.2
2023-03-22T02:52:01.088Z,10.1
2023-03-22T02:53:00.647Z,10.1
2023-03-22T02:54:01.237Z,10.1
2023-03-22T02:55:00.823Z,10.1
2023-03-22T02:56:01.443Z,10.1
2023-03-22T02:57:01.072Z,10
2023-03-22T02:58:01.643Z,10
2023-03-22T02:59:01.233Z,10.1
2023-03-22T03:00:00.830Z,10
2023-03-22T03:01:01.450Z,10
2023-03-22T03:02:01.086Z,10
2023-03-22T03:03:01.635Z,10
2023-03-22T03:04:01.251Z,9.9
2023-03-22T03:05:00.841Z,9.9
2023-03-22T03:06:01.414Z,10
2023-03-22T03:07:01.005Z,10
2023-03-22T03:08:01.578Z,10
2023-03-22T03:09:01.204Z,10
2023-03-22T03:10:00.792Z,10
2023-03-22T03:11:01.444Z,10
2023-03-22T03:12:01.057Z,10
2023-03-22T03:13:01.614Z,10
2023-03-22T03:14:01.237Z,10
2023-03-22T03:15:00.825Z,9.9
2023-03-22T03:16:01.442Z,9.9
2023-03-22T03:17:01.066Z,9.9
2023-03-22T03:18:00.653Z,9.9
2023-03-22T03:19:01.259Z,9.8
2023-03-22T03:20:00.884Z,9.8
2023-03-22T03:21:01.451Z,9.8
2023-03-22T03:22:01.044Z,9.8
2023-03-22T03:23:01.637Z,9.8
2023-03-22T03:24:01.228Z,9.7
2023-03-22T03:25:00.837Z,9.7
2023-03-22T03:26:01.394Z,9.7
2023-03-22T03:27:00.998Z,9.7
2023-03-22T03:28:01.580Z,9.7
2023-03-22T03:29:01.170Z,9.7
2023-03-22T03:30:00.775Z,9.7
2023-03-22T03:31:01.328Z,9.7
2023-03-22T03:32:01.004Z,9.7
2023-03-22T03:33:01.498Z,9.7
2023-03-22T03:34:01.094Z,9.6
2023-03-22T03:35:00.662Z,9.6
2023-03-22T03:36:01.266Z,9.6
2023-03-22T03:37:00.870Z,9.6
2023-03-22T03:38:01.454Z,9.6
2023-03-22T03:39:01.103Z,9.5
2023-03-22T03:40:00.641Z,9.5
2023-03-22T03:41:01.235Z,9.6
2023-03-22T03:42:00.875Z,9.6
2023-03-22T03:43:01.432Z,9.5
2023-03-22T03:44:01.059Z,9.5
2023-03-22T03:45:01.615Z,9.5
2023-03-22T03:46:01.313Z,9.5
2023-03-22T03:47:00.839Z,9.4
2023-03-22T03:48:01.495Z,9.4
2023-03-22T03:49:01.142Z,9.4
2023-03-22T03:50:00.645Z,9.5
2023-03-22T03:51:01.221Z,9.4
2023-03-22T03:52:00.808Z,9.5
2023-03-22T03:53:01.402Z,9.4
2023-03-22T03:54:01.158Z,9.4
2023-03-22T03:55:01.569Z,9.4
2023-03-22T03:56:01.200Z,9.3
2023-03-22T03:57:02.809Z,9.4
2023-03-22T03:58:01.334Z,9.4
2023-03-22T03:59:01.132Z,9.4
2023-03-22T04:00:01.531Z,9.4
2023-03-22T04:01:01.157Z,9.4
2023-03-22T04:02:00.765Z,9.4
2023-03-22T04:03:01.299Z,9.4
2023-03-22T04:04:01.047Z,9.3
2023-03-22T04:05:01.487Z,9.3
2023-03-22T04:06:01.143Z,9.4
2023-03-22T04:07:00.684Z,9.3
2023-03-22T04:08:01.236Z,9.3
2023-03-22T04:09:00.822Z,9.3
2023-03-22T04:10:01.419Z,9.3
2023-03-22T04:11:01.015Z,9.3
2023-03-22T04:12:01.585Z,9.3
2023-03-22T04:13:01.214Z,9.3
2023-03-22T04:14:00.806Z,9.3
2023-03-22T04:15:01.392Z,9.3
2023-03-22T04:16:01.011Z,9.3
2023-03-22T04:17:01.586Z,9.3
2023-03-22T04:18:01.209Z,9.2
2023-03-22T04:19:00.887Z,9.2
2023-03-22T04:20:01.385Z,9.1
2023-03-22T04:21:00.983Z,9.2
2023-03-22T04:22:01.570Z,9.3
2023-03-22T04:23:01.227Z,9.3
2023-03-22T04:24:00.855Z,9.3
2023-03-22T04:25:01.428Z,9.3
2023-03-22T04:26:01.024Z,9.3
2023-03-22T04:27:01.592Z,9.2
2023-03-22T04:28:01.186Z,9.2
2023-03-22T04:29:00.837Z,9.2
2023-03-22T04:30:01.362Z,9.2
2023-03-22T04:31:00.988Z,9.2
2023-03-22T04:32:01.565Z,9.3
2023-03-22T04:33:01.152Z,9.2
2023-03-22T04:34:00.782Z,9.3
2023-03-22T04:35:01.337Z,9.2
2023-03-22T04:36:02.991Z,9.2
2023-03-22T04:37:01.492Z,9.1
2023-03-22T04:38:01.080Z,9.1
2023-03-22T04:39:00.766Z,9.1
2023-03-22T04:40:01.282Z,9.1
2023-03-22T04:41:00.870Z,9.1
2023-03-22T04:42:01.462Z,9
2023-03-22T04:43:01.112Z,9
2023-03-22T04:44:01.634Z,9
2023-03-22T04:45:01.270Z,9
2023-03-22T04:46:00.888Z,9
2023-03-22T04:47:01.434Z,9.1
2023-03-22T04:48:01.107Z,9.1
2023-03-22T04:49:01.609Z,9
2023-03-22T04:50:01.222Z,9
2023-03-22T04:51:00.834Z,9
2023-03-22T04:52:01.408Z,9.1
2023-03-22T04:53:01.001Z,9
2023-03-22T04:54:01.581Z,9
2023-03-22T04:55:01.178Z,9
2023-03-22T04:56:00.790Z,9.1
2023-03-22T04:57:01.366Z,9
2023-03-22T04:58:00.966Z,9
2023-03-22T04:59:01.530Z,9
2023-03-22T05:00:01.117Z,9
2023-03-22T05:01:00.710Z,9
2023-03-22T05:02:01.311Z,9
2023-03-22T05:03:00.957Z,8.9
2023-03-22T05:04:01.527Z,9
2023-03-22T05:05:01.116Z,9
2023-03-22T05:06:00.716Z,9
2023-03-22T05:07:01.282Z,9
2023-03-22T05:08:00.892Z,9
2023-03-22T05:09:01.452Z,9.1
2023-03-22T05:10:01.044Z,9.1
2023-03-22T05:11:01.625Z,9.2
2023-03-22T05:12:01.218Z,9.2
2023-03-22T05:13:01.228Z,9.2
2023-03-22T05:14:01.401Z,9.2
2023-03-22T05:15:00.997Z,9.2
2023-03-22T05:16:01.634Z,9.3
2023-03-22T05:17:01.242Z,9.3
2023-03-22T05:18:00.798Z,9.4
2023-03-22T05:19:01.395Z,9.4
2023-03-22T05:20:01.039Z,9.4
2023-03-22T05:21:01.559Z,9.6
2023-03-22T05:22:01.166Z,9.6
2023-03-22T05:23:00.766Z,9.8
2023-03-22T05:24:01.341Z,9.8
2023-03-22T05:25:00.965Z,9.8
2023-03-22T05:26:01.542Z,10
2023-03-22T05:27:01.258Z,10
2023-03-22T05:28:00.725Z,10
2023-03-22T05:29:01.340Z,10.1
2023-03-22T05:30:00.939Z,10
2023-03-22T05:31:01.519Z,10
2023-03-22T05:32:01.108Z,9.9
2023-03-22T05:33:00.684Z,9.9
2023-03-22T05:34:01.291Z,9.8
2023-03-22T05:35:00.888Z,9.8
2023-03-22T05:36:01.531Z,9.9
2023-03-22T05:37:01.121Z,9.8
2023-03-22T05:38:00.694Z,9.9
2023-03-22T05:39:01.274Z,9.9
2023-03-22T05:40:00.866Z,9.8
2023-03-22T05:41:01.481Z,9.8
2023-03-22T05:42:01.080Z,9.9
2023-03-22T05:43:00.710Z,10
2023-03-22T05:44:01.228Z,10
2023-03-22T05:45:00.823Z,10
2023-03-22T05:46:01.435Z,10.1
2023-03-22T05:47:01.057Z,10.1
2023-03-22T05:48:01.645Z,10.1
2023-03-22T05:49:01.264Z,10.1
2023-03-22T05:50:00.867Z,10.1
2023-03-22T05:51:01.435Z,10.2
2023-03-22T05:52:01.076Z,10.2
2023-03-22T05:53:01.632Z,10.3
2023-03-22T05:54:01.230Z,10.3
2023-03-22T05:55:00.818Z,10.4
2023-03-22T05:56:01.435Z,10.4
2023-03-22T05:57:01.037Z,10.4
2023-03-22T05:58:01.609Z,10.5
2023-03-22T05:59:01.202Z,10.5
2023-03-22T06:00:00.796Z,10.5
2023-03-22T06:01:02.397Z,10.6
2023-03-22T06:02:01.055Z,10.6
2023-03-22T06:03:01.639Z,10.6
2023-03-22T06:04:01.313Z,10.7
2023-03-22T06:05:00.856Z,10.7
2023-03-22T06:06:01.458Z,10.7
2023-03-22T06:07:01.079Z,10.7
2023-03-22T06:08:01.652Z,10.7
2023-03-22T06:09:15.836Z,10.7
2023-03-22T06:10:00.807Z,10.8
2023-03-22T06:11:01.393Z,10.8
2023-03-22T06:12:01.000Z,10.8
2023-03-22T06:13:01.597Z,10.8
2023-03-22T06:14:01.199Z,10.9
2023-03-22T06:15:00.769Z,10.9
2023-03-22T06:16:01.355Z,10.9
2023-03-22T06:17:00.968Z,10.9
2023-03-22T06:18:01.531Z,11
2023-03-22T06:19:01.130Z,10.9
2023-03-22T06:20:00.713Z,11.1
2023-03-22T06:21:01.297Z,11
2023-03-22T06:22:00.916Z,11.1
2023-03-22T06:23:01.479Z,11.1
2023-03-22T06:24:01.218Z,11.1
2023-03-22T06:25:00.658Z,11.2
2023-03-22T06:26:01.245Z,11.3
2023-03-22T06:27:00.855Z,11.3
2023-03-22T06:28:01.439Z,11.2
2023-03-22T06:29:01.030Z,11.3
2023-03-22T06:30:01.609Z,11.4
2023-03-22T06:31:01.205Z,11.3
2023-03-22T06:32:00.800Z,11.3
2023-03-22T06:33:01.395Z,11.4
2023-03-22T06:34:01.006Z,11.4
2023-03-22T06:35:01.570Z,11.4
2023-03-22T06:36:01.161Z,11.5
2023-03-22T06:37:00.738Z,11.5
2023-03-22T06:38:01.321Z,11.6
2023-03-22T06:39:00.937Z,11.6
2023-03-22T06:40:01.528Z,11.7
2023-03-22T06:41:01.122Z,11.7
2023-03-22T06:42:00.711Z,11.7
2023-03-22T06:43:04.585Z,11.7
2023-03-22T06:44:00.897Z,11.8
2023-03-22T06:45:01.505Z,11.8
2023-03-22T06:46:01.171Z,11.8
2023-03-22T06:47:00.693Z,11.8
2023-03-22T06:48:01.508Z,11.9
2023-03-22T06:49:00.935Z,11.8
2023-03-22T06:50:01.509Z,11.9
2023-03-22T06:51:01.118Z,11.9
2023-03-22T06:52:00.699Z,11.9
2023-03-22T06:53:01.244Z,11.9
2023-03-22T06:54:00.833Z,11.9
2023-03-22T06:55:01.436Z,11.9
2023-03-22T06:56:01.107Z,11.9
2023-03-22T06:57:01.621Z,11.9
2023-03-22T06:58:01.217Z,11.8
2023-03-22T06:59:00.806Z,11.9
2023-03-22T07:00:01.415Z,11.8
2023-03-22T07:01:01.124Z,11.8
2023-03-22T07:02:01.604Z,11.8
2023-03-22T07:03:01.205Z,11.8
2023-03-22T07:04:00.825Z,11.7
2023-03-22T07:05:01.378Z,11.8
2023-03-22T07:06:01.000Z,11.8
2023-03-22T07:07:01.551Z,11.8
2023-03-22T07:08:01.142Z,11.8
2023-03-22T07:09:00.725Z,11.9
2023-03-22T07:10:01.292Z,11.9
2023-03-22T07:11:00.903Z,12
2023-03-22T07:12:01.488Z,12
2023-03-22T07:13:01.148Z,12.1
2023-03-22T07:14:00.716Z,12.1
2023-03-22T07:15:01.305Z,12
2023-03-22T07:16:00.951Z,12
2023-03-22T07:17:01.521Z,12
2023-03-22T07:18:01.131Z,12.1
2023-03-22T07:19:00.699Z,12.1
2023-03-22T07:20:01.269Z,12.1
2023-03-22T07:21:00.860Z,12
2023-03-22T07:22:01.462Z,12
2023-03-22T07:23:01.052Z,12.1
2023-03-22T07:24:01.642Z,12.1
2023-03-22T07:25:01.793Z,12.1
2023-03-22T07:26:01.542Z,12
2023-03-22T07:27:01.140Z,12
2023-03-22T07:28:00.764Z,12
2023-03-22T07:29:01.324Z,12
2023-03-22T07:30:00.932Z,12
2023-03-22T07:31:01.504Z,12
2023-03-22T07:32:01.176Z,11.9
2023-03-22T07:33:00.676Z,11.9
2023-03-22T07:34:01.249Z,11.9
2023-03-22T07:35:00.847Z,12
2023-03-22T07:36:01.483Z,12.1
2023-03-22T07:37:01.100Z,12.2
2023-03-22T07:38:00.666Z,12.3
2023-03-22T07:39:01.280Z,12.3
2023-03-22T07:40:00.880Z,12.4
2023-03-22T07:41:01.445Z,12.5
2023-03-22T07:42:01.045Z,12.5
2023-03-22T07:43:01.648Z,12.6
2023-03-22T07:44:15.151Z,12.7
2023-03-22T07:45:00.921Z,12.5
2023-03-22T07:46:01.463Z,12.7
2023-03-22T07:47:01.107Z,12.8
2023-03-22T07:48:00.733Z,12.8
2023-03-22T07:49:01.511Z,12.9
2023-03-22T07:50:00.928Z,13.1
2023-03-22T07:51:01.502Z,13.1
2023-03-22T07:52:01.113Z,13.3
2023-03-22T07:53:00.687Z,13
2023-03-22T07:54:01.289Z,13.1
2023-03-22T07:55:00.906Z,13
2023-03-22T07:56:01.470Z,12.9
2023-03-22T07:57:01.119Z,13.1
2023-03-22T07:58:00.651Z,13.1
2023-03-22T07:59:01.285Z,13.2
2023-03-22T08:00:01.029Z,13.2
2023-03-22T08:01:01.467Z,13.2
2023-03-22T08:02:01.092Z,13.2
2023-03-22T08:03:01.687Z,13.3
2023-03-22T08:04:01.315Z,13.4
2023-03-22T08:05:01.074Z,13.2
2023-03-22T08:06:01.751Z,13.2
2023-03-22T08:07:01.128Z,13.2
2023-03-22T08:08:00.715Z,13.1
2023-03-22T08:09:01.302Z,13.2
2023-03-22T08:10:00.890Z,13.2
2023-03-22T08:11:01.498Z,13
2023-03-22T08:12:01.084Z,13
2023-03-22T08:13:00.670Z,12.9
2023-03-22T08:14:01.257Z,13
2023-03-22T08:15:00.850Z,12.9
2023-03-22T08:16:01.507Z,12.8
2023-03-22T08:17:01.081Z,12.9
2023-03-22T08:18:00.715Z,12.9
2023-03-22T08:19:01.245Z,13
2023-03-22T08:20:00.848Z,12.9
2023-03-22T08:21:01.425Z,13
2023-03-22T08:22:01.119Z,13
2023-03-22T08:23:00.676Z,13.2
2023-03-22T08:24:01.258Z,13.1
2023-03-22T08:25:00.853Z,13
2023-03-22T08:26:01.439Z,13
2023-03-22T08:27:01.046Z,13
2023-03-22T08:28:01.637Z,13.1
2023-03-22T08:29:01.225Z,13
2023-03-22T08:30:00.842Z,13
2023-03-22T08:31:01.399Z,12.9
2023-03-22T08:32:01.060Z,13.2
2023-03-22T08:33:01.589Z,13.2
2023-03-22T08:34:01.179Z,13.3
2023-03-22T08:35:00.768Z,13.3
2023-03-22T08:36:01.453Z,13.2
2023-03-22T08:37:01.019Z,13.3
2023-03-22T08:38:01.627Z,13.3
2023-03-22T08:39:01.217Z,13.1
2023-03-22T08:40:00.896Z,13
2023-03-22T08:41:01.396Z,13.1
2023-03-22T08:42:00.990Z,13.3
2023-03-22T08:43:01.595Z,13.2
2023-03-22T08:44:01.188Z,13.2
2023-03-22T08:45:00.829Z,13
2023-03-22T08:46:01.406Z,13.2
2023-03-22T08:47:02.232Z,13.2
2023-03-22T08:48:01.659Z,13.3
2023-03-22T08:49:01.282Z,13.3
2023-03-22T08:50:00.854Z,13.4
2023-03-22T08:51:01.426Z,13.5
2023-03-22T08:52:01.012Z,13.5
2023-03-22T08:53:01.597Z,13.3
2023-03-22T08:54:01.205Z,13.2
2023-03-22T08:55:00.801Z,13
2023-03-22T08:56:01.403Z,13.1
2023-03-22T08:57:01.017Z,13
2023-03-22T08:58:01.591Z,13.1
2023-03-22T08:59:01.272Z,13
2023-03-22T09:00:00.838Z,12.8
2023-03-22T09:01:01.597Z,12.9
2023-03-22T09:02:01.178Z,13
2023-03-22T09:03:00.669Z,12.9
2023-03-22T09:04:01.376Z,13.1
2023-03-22T09:05:00.915Z,13.3
2023-03-22T09:06:01.518Z,13.3
2023-03-22T09:07:01.122Z,13.4
2023-03-22T09:08:06.199Z,13.2
2023-03-22T09:09:01.235Z,13.2
2023-03-22T09:10:00.846Z,13.2
2023-03-22T09:11:01.415Z,13.3
2023-03-22T09:12:01.032Z,13.2
2023-03-22T09:13:01.598Z,13.3
2023-03-22T09:14:01.187Z,13.4
2023-03-22T09:15:00.800Z,13.5
2023-03-22T09:16:01.463Z,13.7
2023-03-22T09:17:01.030Z,13.3
2023-03-22T09:18:01.616Z,13.3
2023-03-22T09:19:01.205Z,13.4
2023-03-22T09:20:11.813Z,13.6
2023-03-22T09:21:01.355Z,13.8
2023-03-22T09:22:00.943Z,14
2023-03-22T09:23:01.532Z,14.2
2023-03-22T09:24:01.140Z,13.8
2023-03-22T09:25:00.712Z,13.7
2023-03-22T09:26:01.312Z,13.5
2023-03-22T09:27:00.907Z,13.7
2023-03-22T09:28:01.508Z,13.3
2023-03-22T09:29:01.123Z,13.3
2023-03-22T09:30:00.711Z,13.5
2023-03-22T09:31:01.300Z,13.6
2023-03-22T09:32:00.924Z,13.4
2023-03-22T09:33:01.497Z,13.5
2023-03-22T09:34:01.083Z,13.3
2023-03-22T09:35:00.667Z,13.3
2023-03-22T09:36:01.410Z,13.2
2023-03-22T09:37:00.912Z,13.2
2023-03-22T09:38:01.498Z,13.2
2023-03-22T09:39:01.087Z,13.1
2023-03-22T09:40:00.694Z,13.2
2023-03-22T09:41:01.258Z,13.1
2023-03-22T09:42:00.858Z,13.3
2023-03-22T09:43:01.446Z,13.6
2023-03-22T09:44:01.034Z,13.7
2023-03-22T09:45:01.639Z,13.7
2023-03-22T09:46:01.337Z,13.9
2023-03-22T09:47:00.865Z,13.6
2023-03-22T09:48:01.501Z,13.5
2023-03-22T09:49:01.104Z,13.6
2023-03-22T09:50:00.719Z,13.7
2023-03-22T09:51:01.276Z,14.1
2023-03-22T09:52:00.911Z,14
2023-03-22T09:53:01.451Z,14.2
2023-03-22T09:54:01.084Z,13.9
2023-03-22T09:55:01.645Z,13.6
2023-03-22T09:56:01.270Z,13.8
2023-03-22T09:57:00.872Z,13.6
2023-03-22T09:58:01.465Z,13.6
2023-03-22T09:59:01.058Z,13.4
2023-03-22T10:00:01.657Z,13.3
2023-03-22T10:01:01.491Z,13.1
2023-03-22T10:02:01.119Z,13.1
2023-03-22T10:03:01.484Z,13.3
2023-03-22T10:04:01.100Z,13.3
2023-03-22T10:05:00.677Z,13.3
2023-03-22T10:06:01.244Z,13.5
2023-03-22T10:07:00.833Z,13.6
2023-03-22T10:08:01.458Z,13.6
2023-03-22T10:09:01.082Z,13.4
2023-03-22T10:10:00.685Z,13.5
2023-03-22T10:11:01.264Z,13.5
2023-03-22T10:12:00.858Z,13.9
2023-03-22T10:13:01.446Z,14.1
2023-03-22T10:14:01.033Z,13.8
2023-03-22T10:15:01.640Z,14
2023-03-22T10:16:01.255Z,13.9
2023-03-22T10:17:00.890Z,13.8
2023-03-22T10:18:01.443Z,13.8
2023-03-22T10:19:01.030Z,13.8
2023-03-22T10:20:01.627Z,13.9
2023-03-22T10:21:01.227Z,13.8
2023-03-22T10:22:00.830Z,14
2023-03-22T10:23:01.453Z,13.8
2023-03-22T10:24:01.074Z,13.9
2023-03-22T10:25:01.685Z,13.8
2023-03-22T10:26:01.299Z,13.5
2023-03-22T10:27:00.879Z,13.7
2023-03-22T10:28:01.466Z,13.7
2023-03-22T10:29:02.804Z,13.7
2023-03-22T10:30:01.598Z,13.6
2023-03-22T10:31:02.289Z,13.6
2023-03-22T10:32:00.755Z,13.6
2023-03-22T10:33:01.345Z,13.8
2023-03-22T10:34:00.938Z,13.8
2023-03-22T10:35:01.512Z,14.1
2023-03-22T10:36:01.164Z,14
2023-03-22T10:37:00.691Z,13.9
2023-03-22T10:38:01.295Z,13.7
2023-03-22T10:39:00.884Z,14
2023-03-22T10:40:01.503Z,14.1
2023-03-22T10:41:01.120Z,13.9
2023-03-22T10:42:00.738Z,13.8
2023-03-22T10:43:01.292Z,13.8
2023-03-22T10:44:00.892Z,13.7
2023-03-22T10:45:01.506Z,13.7
2023-03-22T10:46:01.167Z,13.8
2023-03-22T10:47:00.776Z,14.1
2023-03-22T10:48:01.314Z,14.2
2023-03-22T10:49:00.933Z,14.1
2023-03-22T10:50:01.512Z,13.8
2023-03-22T10:51:01.292Z,14
2023-03-22T10:52:00.791Z,13.9
2023-03-22T10:53:01.348Z,13.9
2023-03-22T10:54:00.940Z,14.2
2023-03-22T10:55:04.422Z,14.4
2023-03-22T10:56:01.098Z,14.2
2023-03-22T10:57:00.710Z,14
2023-03-22T10:58:01.272Z,14.2
2023-03-22T10:59:00.860Z,14.2
2023-03-22T11:00:01.434Z,14.1
2023-03-22T11:01:01.232Z,14.6
2023-03-22T11:02:01.807Z,14.5
2023-03-22T11:03:01.466Z,14.6
2023-03-22T11:04:00.861Z,14.3
2023-03-22T11:05:01.454Z,13.9
2023-03-22T11:06:01.042Z,14.1
2023-03-22T11:07:01.647Z,14.1
2023-03-22T11:08:01.241Z,14
2023-03-22T11:09:00.846Z,14.1
2023-03-22T11:10:01.416Z,14.1
2023-03-22T11:11:01.024Z,14.1
2023-03-22T11:12:01.611Z,14
2023-03-22T11:13:01.305Z,14.1
2023-03-22T11:14:00.834Z,14.3
2023-03-22T11:15:01.412Z,14.3
2023-03-22T11:16:01.041Z,14.3
2023-03-22T11:17:01.618Z,14.3
2023-03-22T11:18:01.235Z,14.3
2023-03-22T11:19:00.828Z,14.2
2023-03-22T11:20:01.496Z,14.3
2023-03-22T11:21:01.084Z,14.5
2023-03-22T11:22:01.653Z,14.5
2023-03-22T11:23:01.258Z,14.2
2023-03-22T11:24:00.870Z,14.3
2023-03-22T11:25:01.439Z,14.2
2023-03-22T11:26:01.071Z,14.3
2023-03-22T11:27:01.626Z,14.1
2023-03-22T11:28:01.243Z,14.1
2023-03-22T11:29:00.853Z,14.3
2023-03-22T11:30:01.423Z,14.3
2023-03-22T11:31:01.036Z,14.2
2023-03-22T11:32:01.697Z,14.3
2023-03-22T11:33:01.440Z,14
2023-03-22T11:34:00.824Z,14
2023-03-22T11:35:01.436Z,14.1
2023-03-22T11:36:01.090Z,14.3
2023-03-22T11:37:01.676Z,14.2
2023-03-22T11:38:01.343Z,14.2
2023-03-22T11:39:00.893Z,14.3
2023-03-22T11:40:01.521Z,14.1
2023-03-22T11:41:01.128Z,14
2023-03-22T11:42:00.714Z,14
2023-03-22T11:43:01.308Z,14
2023-03-22T11:44:00.941Z,14
2023-03-22T11:45:01.505Z,13.7
2023-03-22T11:46:01.150Z,13.7
2023-03-22T11:47:00.762Z,13.8
2023-03-22T11:48:01.353Z,13.8
2023-03-22T11:49:01.360Z,13.9
2023-03-22T11:50:01.120Z,13.8
2023-03-22T11:51:00.724Z,13.9
2023-03-22T11:52:02.711Z,13.9
2023-03-22T11:53:00.845Z,13.8
2023-03-22T11:54:01.439Z,13.6
2023-03-22T11:55:01.066Z,13.6
2023-03-22T11:56:01.624Z,13.6
2023-03-22T11:57:01.217Z,13.5
2023-03-22T11:58:00.805Z,13.5
2023-03-22T11:59:01.389Z,13.3
2023-03-22T12:00:01.036Z,13.4
2023-03-22T12:01:01.581Z,13.4
2023-03-22T12:02:01.179Z,13.5
2023-03-22T12:03:00.823Z,13.6
2023-03-22T12:04:01.373Z,13.6
2023-03-22T12:05:01.070Z,13.8
2023-03-22T12:06:01.603Z,13.6
2023-03-22T12:07:01.214Z,13.6
2023-03-22T12:08:00.799Z,13.8
2023-03-22T12:09:01.388Z,13.7
2023-03-22T12:10:01.008Z,13.7
2023-03-22T12:11:01.551Z,13.7
2023-03-22T12:12:01.150Z,13.8
2023-03-22T12:13:00.718Z,13.7
2023-03-22T12:14:01.309Z,13.6
2023-03-22T12:15:00.991Z,13.8
2023-03-22T12:16:01.587Z,13.8
2023-03-22T12:17:01.203Z,13.8
2023-03-22T12:18:00.851Z,13.7
2023-03-22T12:19:01.377Z,13.6
2023-03-22T12:20:01.031Z,13.5
2023-03-22T12:21:01.565Z,13.3
2023-03-22T12:22:01.217Z,13.3
2023-03-22T12:23:00.801Z,13.3
2023-03-22T12:24:01.387Z,13.3
2023-03-22T12:25:01.008Z,13.3
2023-03-22T12:26:01.561Z,13.3
2023-03-22T12:27:01.171Z,13.2
2023-03-22T12:28:00.737Z,13.2
2023-03-22T12:29:01.314Z,13.3
2023-03-22T12:30:00.932Z,13.3
2023-03-22T12:31:01.565Z,13.3
2023-03-22T12:32:01.220Z,13.5
2023-03-22T12:33:00.771Z,13.8
2023-03-22T12:34:01.316Z,13.7
2023-03-22T12:35:17.876Z,13.8
2023-03-22T12:36:01.584Z,13.8
2023-03-22T12:37:01.160Z,13.8
2023-03-22T12:38:00.743Z,13.7
2023-03-22T12:39:01.337Z,13.8
2023-03-22T12:40:00.929Z,13.7
2023-03-22T12:41:01.516Z,13.9
2023-03-22T12:42:01.156Z,14
2023-03-22T12:43:00.758Z,14.3
2023-03-22T12:44:01.325Z,14.2
2023-03-22T12:45:04.950Z,14
2023-03-22T12:46:01.467Z,14.3
2023-03-22T12:47:01.126Z,14.5
2023-03-22T12:48:00.774Z,14.7
2023-03-22T12:49:01.287Z,14.5
2023-03-22T12:50:00.907Z,14.3
2023-03-22T12:51:01.476Z,14.2
2023-03-22T12:52:01.088Z,14
2023-03-22T12:53:01.653Z,14.1
2023-03-22T12:54:01.245Z,14.1
2023-03-22T12:55:00.842Z,14.2
2023-03-22T12:56:01.415Z,14.1
2023-03-22T12:57:01.065Z,14
2023-03-22T12:58:01.604Z,13.8
2023-03-22T12:59:01.210Z,13.6
2023-03-22T13:00:00.808Z,13.5
2023-03-22T13:01:01.400Z,13.6
2023-03-22T13:02:01.065Z,13.6
2023-03-22T13:03:01.693Z,13.5
2023-03-22T13:04:01.458Z,13.3
2023-03-22T13:05:00.852Z,13.4
2023-03-22T13:06:01.457Z,13.3
2023-03-22T13:07:01.064Z,13.3
2023-03-22T13:08:01.651Z,13.1
2023-03-22T13:09:01.240Z,13.1
2023-03-22T13:10:00.829Z,13.1
2023-03-22T13:11:01.416Z,13
2023-03-22T13:12:01.009Z,13
2023-03-22T13:13:01.611Z,13
2023-03-22T13:14:01.217Z,13.1
2023-03-22T13:15:00.771Z,13.2
2023-03-22T13:16:01.364Z,13.1
2023-03-22T13:17:01.085Z,13.1
2023-03-22T13:18:01.606Z,13.1
2023-03-22T13:19:01.213Z,13.1
2023-03-22T13:20:00.834Z,13
2023-03-22T13:21:01.400Z,12.9
2023-03-22T13:22:00.993Z,12.9
2023-03-22T13:23:01.578Z,13
2023-03-22T13:24:01.201Z,13
2023-03-22T13:25:00.764Z,13
2023-03-22T13:26:01.344Z,13
2023-03-22T13:27:00.936Z,13.1
2023-03-22T13:28:01.518Z,13.2
2023-03-22T13:29:01.132Z,13.4
2023-03-22T13:30:00.755Z,13.3
2023-03-22T13:31:01.278Z,13.3